createdAt,value
2022-11-15T00:01:31.545Z,71.60
2022-11-15T00:04:17.101Z,71.28
2022-11-15T00:07:10.516Z,71.15
2022-11-15T00:10:05.498Z,71.20
2022-11-15T00:12:50.552Z,71.51
2022-11-15T00:15:37.750Z,71.05
2022-11-15T00:18:23.249Z,71.22
2022-11-15T00:21:12.838Z,72.17
2022-11-15T00:23:59.265Z,71.84
2022-11-15T00:26:45.051Z,71.58
2022-11-15T00:29:30.279Z,71.66
2022-11-15T00:32:22.124Z,71.99
2022-11-15T00:35:07.908Z,71.77
2022-11-15T00:38:06.717Z,72.15
2022-11-15T00:41:10.686Z,72.51
2022-11-15T00:44:02.829Z,71.42
2022-11-15T00:46:48.431Z,71.58
2022-11-15T00:49:33.734Z,71.50
2022-11-15T00:52:19.200Z,71.42
2022-11-15T00:55:04.877Z,71.93
2022-11-15T00:57:50.440Z,72.23
2022-11-15T01:00:49.763Z,72.43
2022-11-15T01:03:51.760Z,72.46
2022-11-15T01:06:43.962Z,72.31
2022-11-15T01:09:29.616Z,73.18
2022-11-15T01:12:15.299Z,72.65
2022-11-15T01:15:00.699Z,71.96
2022-11-15T01:17:59.736Z,71.83
2022-11-15T01:20:52.156Z,72.65
2022-11-15T01:23:38.484Z,72.43
2022-11-15T01:26:25.553Z,72.56
2022-11-15T01:29:23.712Z,73.90
2022-11-15T01:32:28.696Z,73.45
2022-11-15T01:35:21.928Z,74.08
2022-11-15T01:38:07.414Z,73.56
2022-11-15T01:40:52.874Z,73.39
2022-11-15T01:43:38.473Z,73.31
2022-11-15T01:46:58.438Z,73.29
2022-11-15T01:50:00.503Z,73.82
2022-11-15T01:52:46.347Z,74.25
2022-11-15T01:55:31.897Z,73.99
2022-11-15T01:58:17.148Z,73.22
2022-11-15T02:01:02.961Z,73.25
2022-11-15T02:04:14.106Z,73.12
2022-11-15T02:07:00.948Z,73.20
2022-11-15T02:09:46.919Z,73.68
2022-11-15T02:12:32.703Z,73.94
2022-11-15T02:15:18.136Z,74.90
2022-11-15T02:18:15.974Z,73.99
2022-11-15T02:21:15.834Z,73.94
2022-11-15T02:24:26.225Z,73.92
2022-11-15T02:27:21.044Z,75.13
2022-11-15T02:30:18.812Z,74.48
2022-11-15T02:33:41.224Z,74.83
2022-11-15T02:36:50.449Z,75.53
2022-11-15T02:39:45.641Z,74.99
2022-11-15T02:42:55.547Z,74.88
2022-11-15T02:45:47.148Z,74.82
2022-11-15T02:48:33.852Z,75.40
2022-11-15T02:51:20.113Z,74.66
2022-11-15T02:54:05.449Z,74.58
2022-11-15T02:56:54.354Z,75.17
2022-11-15T02:59:59.348Z,75.09
2022-11-15T03:02:57.025Z,75.24
2022-11-15T03:06:01.882Z,75.86
2022-11-15T03:09:13.747Z,75.04
2022-11-15T03:12:12.984Z,75.81
2022-11-15T03:15:02.759Z,75.19
2022-11-15T03:17:59.872Z,75.23
2022-11-15T03:20:46.950Z,75.49
2022-11-15T03:23:34.679Z,75.27
2022-11-15T03:26:23.047Z,75.68
2022-11-15T03:29:26.993Z,75.74
2022-11-15T03:32:26.383Z,75.69
2022-11-15T03:35:18.457Z,75.23
2022-11-15T03:38:20.883Z,75.44
2022-11-15T03:41:12.865Z,75.86
2022-11-15T03:44:15.086Z,75.19
2022-11-15T03:47:18.515Z,75.75
2022-11-15T03:50:09.813Z,75.62
2022-11-15T03:52:56.313Z,75.82
2022-11-15T03:55:41.967Z,75.36
2022-11-15T03:58:27.341Z,75.46
2022-11-15T04:01:12.763Z,75.66
2022-11-15T04:03:58.294Z,75.65
2022-11-15T04:06:43.690Z,75.69
2022-11-15T04:09:29.189Z,75.36
2022-11-15T04:12:31.688Z,75.27
2022-11-15T04:15:23.669Z,75.64
2022-11-15T04:18:08.804Z,75.96
2022-11-15T04:21:12.867Z,76.30
2022-11-15T04:24:13.281Z,75.92
2022-11-15T04:26:59.208Z,76.37
2022-11-15T04:29:44.909Z,76.40
2022-11-15T04:32:29.964Z,76.49
2022-11-15T04:35:15.398Z,76.64
2022-11-15T04:38:01.696Z,75.76
2022-11-15T04:40:47.741Z,75.99
2022-11-15T04:43:33.488Z,76.51
2022-11-15T04:46:18.964Z,76.52
2022-11-15T04:49:04.357Z,76.44
2022-11-15T04:51:50.953Z,76.05
2022-11-15T04:54:36.717Z,75.66
2022-11-15T04:57:22.536Z,76.06
2022-11-15T05:00:11.549Z,76.50
2022-11-15T05:03:17.161Z,75.35
2022-11-15T05:06:03.245Z,76.00
2022-11-15T05:08:48.909Z,75.93
2022-11-15T05:11:34.645Z,75.32
2022-11-15T05:14:19.796Z,75.04
2022-11-15T05:17:05.140Z,75.77
2022-11-15T05:19:52.959Z,75.30
2022-11-15T05:22:39.400Z,75.59
2022-11-15T05:25:25.169Z,75.36
2022-11-15T05:28:10.619Z,75.47
2022-11-15T05:31:11.947Z,75.07
2022-11-15T05:33:57.680Z,75.00
2022-11-15T05:36:46.170Z,75.69
2022-11-15T05:39:31.772Z,75.98
2022-11-15T05:42:17.656Z,76.23
2022-11-15T05:45:06.522Z,75.80
2022-11-15T05:47:53.812Z,75.54
2022-11-15T05:50:42.758Z,75.84
2022-11-15T05:53:28.178Z,75.74
2022-11-15T05:56:14.788Z,75.91
2022-11-15T05:59:00.861Z,75.44
2022-11-15T06:01:46.337Z,75.25
2022-11-15T06:04:31.796Z,75.27
2022-11-15T06:07:17.211Z,74.91
2022-11-15T06:10:02.782Z,74.52
2022-11-15T06:12:48.383Z,74.75
2022-11-15T06:15:35.469Z,75.42
2022-11-15T06:18:21.061Z,75.80
2022-11-15T06:21:06.878Z,76.23
2022-11-15T06:23:52.304Z,75.83
2022-11-15T06:26:37.820Z,75.38
2022-11-15T06:29:23.074Z,75.50
2022-11-15T06:32:08.508Z,75.21
2022-11-15T06:34:53.887Z,74.85
2022-11-15T06:37:39.426Z,75.04
2022-11-15T06:40:24.959Z,75.29
2022-11-15T06:43:10.356Z,75.71
2022-11-15T06:45:55.770Z,75.23
2022-11-15T06:48:41.074Z,75.44
2022-11-15T06:51:26.557Z,74.92
2022-11-15T06:54:11.826Z,75.70
2022-11-15T06:56:57.073Z,76.23
2022-11-15T06:59:42.578Z,75.04
2022-11-15T07:02:27.857Z,75.70
2022-11-15T07:05:14.745Z,71.48
2022-11-15T07:08:00.795Z,70.76
2022-11-15T07:10:46.345Z,69.88
2022-11-15T07:13:36.517Z,69.75
2022-11-15T07:16:22.152Z,69.41
2022-11-15T07:19:07.551Z,69.44
2022-11-15T07:21:52.998Z,69.89
2022-11-15T07:24:38.380Z,69.03
2022-11-15T07:27:23.864Z,69.16
2022-11-15T07:30:09.607Z,69.53
2022-11-15T07:32:59.573Z,69.74
2022-11-15T07:35:47.506Z,68.89
2022-11-15T07:38:39.573Z,69.19
2022-11-15T07:41:26.434Z,68.64
2022-11-15T07:44:11.758Z,68.42
2022-11-15T07:46:57.119Z,67.99
2022-11-15T07:49:42.561Z,68.74
2022-11-15T07:52:27.819Z,68.22
2022-11-15T07:55:13.169Z,68.53
2022-11-15T07:58:06.684Z,67.59
2022-11-15T08:00:52.116Z,68.22
2022-11-15T08:03:37.912Z,68.41
2022-11-15T08:06:23.308Z,68.14
2022-11-15T08:09:08.599Z,67.70
2022-11-15T08:11:54.048Z,68.34
2022-11-15T08:14:39.639Z,67.89
2022-11-15T08:17:25.844Z,67.52
2022-11-15T08:20:11.690Z,67.23
2022-11-15T08:22:58.218Z,67.26
2022-11-15T08:25:43.419Z,67.19
2022-11-15T08:28:28.993Z,67.33
2022-11-15T08:31:19.308Z,67.21
2022-11-15T08:34:05.386Z,67.01
2022-11-15T08:36:50.828Z,67.27
2022-11-15T08:39:36.188Z,67.24
2022-11-15T08:42:21.528Z,67.39
2022-11-15T08:45:08.672Z,67.13
2022-11-15T08:47:54.732Z,67.31
2022-11-15T08:50:40.467Z,66.22
2022-11-15T08:53:25.516Z,65.78
2022-11-15T08:56:13.292Z,64.83
2022-11-15T08:58:58.795Z,65.05
2022-11-15T09:01:44.391Z,65.52
2022-11-15T09:04:30.733Z,65.69
2022-11-15T09:07:16.237Z,65.51
2022-11-15T09:10:01.712Z,64.63
2022-11-15T09:12:49.554Z,65.18
2022-11-15T09:15:34.774Z,65.26
2022-11-15T09:18:22.434Z,65.29
2022-11-15T09:21:08.082Z,64.38
2022-11-15T09:23:53.925Z,63.62
2022-11-15T09:26:39.117Z,64.79
2022-11-15T09:29:24.364Z,65.72
2022-11-15T09:32:10.506Z,66.84
2022-11-15T09:34:56.285Z,66.27
2022-11-15T09:37:41.648Z,67.88
2022-11-15T09:40:27.395Z,67.19
2022-11-15T09:43:32.273Z,67.20
2022-11-15T09:46:34.203Z,66.64
2022-11-15T09:49:27.220Z,67.18
2022-11-15T09:52:21.890Z,65.57
2022-11-15T09:54:53.777Z,65.47
2022-11-15T09:57:42.757Z,64.85
2022-11-15T10:00:47.233Z,64.12
2022-11-15T10:03:26.037Z,64.39
2022-11-15T10:05:55.534Z,63.68
2022-11-15T10:08:35.670Z,64.14
2022-11-15T10:11:36.200Z,63.67
2022-11-15T10:13:58.833Z,64.04
2022-11-15T10:16:31.665Z,64.73
2022-11-15T10:19:04.371Z,63.47
2022-11-15T10:21:45.672Z,64.34
2022-11-15T10:24:14.100Z,63.30
2022-11-15T10:26:48.144Z,63.45
2022-11-15T10:29:27.005Z,63.86
2022-11-15T10:31:54.313Z,63.35
2022-11-15T10:34:23.231Z,63.52
2022-11-15T10:36:58.391Z,63.68
2022-11-15T10:42:27.223Z,64.67
2022-11-15T10:44:54.401Z,64.12
2022-11-15T10:47:23.468Z,66.44
2022-11-15T10:50:02.305Z,65.55
2022-11-15T10:52:31.322Z,66.19
2022-11-15T10:55:06.552Z,65.73
2022-11-15T10:57:38.602Z,66.32
2022-11-15T11:00:33.185Z,66.50
2022-11-15T11:03:04.769Z,65.97
2022-11-15T11:05:42.566Z,65.59
2022-11-15T11:08:15.889Z,65.95
2022-11-15T11:11:03.219Z,65.71
2022-11-15T11:13:31.800Z,65.77
2022-11-15T11:16:20.765Z,65.59
2022-11-15T11:19:09.248Z,66.24
2022-11-15T11:21:47.127Z,66.17
2022-11-15T11:24:44.454Z,65.91
2022-11-15T11:27:32.853Z,66.81
2022-11-15T11:30:19.986Z,65.65
2022-11-15T11:33:29.163Z,65.93
2022-11-15T11:35:55.912Z,65.50
2022-11-15T11:38:54.953Z,66.31
2022-11-15T11:41:28.890Z,64.50
2022-11-15T11:43:58.741Z,64.68
2022-11-15T11:46:47.265Z,63.06
2022-11-15T11:49:32.256Z,62.07
2022-11-15T11:52:40.049Z,62.18
2022-11-15T11:55:18.753Z,61.00
2022-11-15T11:58:20.833Z,60.46
2022-11-15T12:00:50.720Z,61.21
2022-11-15T12:03:28.954Z,60.95
2022-11-15T12:06:00.821Z,60.09
2022-11-15T12:08:42.799Z,60.08
2022-11-15T12:11:25.009Z,60.52
2022-11-15T12:13:59.005Z,59.90
2022-11-15T12:16:31.349Z,61.20
2022-11-15T12:19:04.719Z,61.19
2022-11-15T12:21:50.469Z,61.31
2022-11-15T12:24:41.529Z,61.76
2022-11-15T12:27:20.552Z,60.84
2022-11-15T12:29:58.574Z,62.15
2022-11-15T12:33:09.309Z,60.78
2022-11-15T12:35:42.645Z,62.27
2022-11-15T12:38:33.452Z,60.58
2022-11-15T12:41:18.905Z,60.44
2022-11-15T12:43:47.627Z,60.96
2022-11-15T12:46:34.354Z,60.45
2022-11-15T12:49:02.404Z,60.21
2022-11-15T12:51:44.232Z,60.38
2022-11-15T12:54:43.428Z,60.82
2022-11-15T12:57:16.145Z,60.18
2022-11-15T12:59:53.085Z,60.19
2022-11-15T13:02:22.318Z,60.68
2022-11-15T13:04:50.657Z,60.98
2022-11-15T13:07:35.694Z,60.71
2022-11-15T13:10:31.297Z,61.54
2022-11-15T13:13:03.777Z,61.59
2022-11-15T13:16:06.697Z,60.76
2022-11-15T13:18:39.153Z,60.93
2022-11-15T13:21:39.144Z,61.04
2022-11-15T13:24:11.578Z,60.19
2022-11-15T13:26:41.138Z,59.91
2022-11-15T13:29:17.834Z,60.14
2022-11-15T13:31:45.938Z,60.68
2022-11-15T13:34:49.923Z,61.14
2022-11-15T13:37:21.027Z,61.04
2022-11-15T13:39:49.818Z,60.75
2022-11-15T13:42:21.707Z,61.11
2022-11-15T13:45:00.819Z,60.81
2022-11-15T13:47:30.424Z,61.07
2022-11-15T13:50:02.253Z,60.82
2022-11-15T13:52:35.936Z,61.50
2022-11-15T13:55:11.361Z,61.00
2022-11-15T13:57:49.191Z,61.26
2022-11-15T14:00:44.852Z,61.51
2022-11-15T14:03:17.612Z,61.07
2022-11-15T14:05:45.945Z,60.45
2022-11-15T14:08:34.054Z,61.40
2022-11-15T14:11:27.487Z,61.71
2022-11-15T14:14:09.410Z,60.88
2022-11-15T14:16:42.387Z,60.88
2022-11-15T14:19:33.626Z,61.10
2022-11-15T14:22:10.931Z,61.49
2022-11-15T14:24:38.507Z,60.22
2022-11-15T14:27:26.297Z,60.33
2022-11-15T14:29:53.967Z,60.74
2022-11-15T14:32:38.131Z,59.90
2022-11-15T14:35:12.878Z,61.13
2022-11-15T14:37:39.748Z,60.86
2022-11-15T14:40:07.362Z,60.60
2022-11-15T14:42:34.295Z,60.33
2022-11-15T14:45:01.158Z,60.60
2022-11-15T14:47:27.981Z,60.55
2022-11-15T14:49:54.776Z,59.73
2022-11-15T14:52:32.976Z,59.91
2022-11-15T14:55:00.897Z,59.97
2022-11-15T14:57:28.113Z,60.08
2022-11-15T14:59:55.059Z,59.98
2022-11-15T15:02:25.176Z,60.24
2022-11-15T15:04:52.738Z,60.16
2022-11-15T15:07:20.300Z,60.09
2022-11-15T15:09:47.767Z,59.82
2022-11-15T15:12:22.103Z,60.20
2022-11-15T15:14:51.009Z,60.38
2022-11-15T15:17:18.642Z,60.53
2022-11-15T15:19:46.173Z,60.57
2022-11-15T15:22:18.907Z,60.44
2022-11-15T15:24:47.077Z,60.76
2022-11-15T15:27:14.255Z,59.94
2022-11-15T15:29:41.674Z,60.15
2022-11-15T15:32:10.133Z,59.78
2022-11-15T15:34:37.019Z,60.48
2022-11-15T15:37:19.647Z,60.54
2022-11-15T15:39:46.583Z,59.70
2022-11-15T15:42:13.382Z,60.51
2022-11-15T15:44:40.224Z,60.40
2022-11-15T15:47:19.776Z,60.71
2022-11-15T15:49:47.240Z,61.04
2022-11-15T15:52:14.158Z,61.26
2022-11-15T15:54:41.769Z,61.86
2022-11-15T15:57:12.047Z,61.88
2022-11-15T15:59:39.150Z,61.87
2022-11-15T16:02:06.475Z,61.97
2022-11-15T16:04:33.306Z,61.92
2022-11-15T16:07:01.672Z,61.27
2022-11-15T16:09:47.204Z,62.05
2022-11-15T16:12:15.322Z,62.22
2022-11-15T16:14:42.154Z,62.19
2022-11-15T16:17:34.307Z,62.85
2022-11-15T16:20:01.760Z,62.74
2022-11-15T16:22:30.381Z,62.74
2022-11-15T16:24:57.672Z,62.91
2022-11-15T16:27:24.764Z,62.54
2022-11-15T16:29:51.591Z,62.88
2022-11-15T16:32:18.472Z,63.42
2022-11-15T16:34:49.034Z,63.69
2022-11-15T16:37:25.524Z,62.89
2022-11-15T16:39:55.923Z,62.89
2022-11-15T16:42:25.275Z,62.86
2022-11-15T16:44:52.151Z,63.37
2022-11-15T16:47:20.267Z,63.17
2022-11-15T16:49:47.655Z,63.60
2022-11-15T16:52:20.159Z,63.12
2022-11-15T16:54:48.171Z,63.18
2022-11-15T16:57:16.639Z,63.17
2022-11-15T16:59:43.540Z,62.93
2022-11-15T17:02:14.017Z,63.21
2022-11-15T17:04:41.085Z,63.02
2022-11-15T17:07:08.719Z,63.54
2022-11-15T17:09:35.609Z,63.95
2022-11-15T17:12:02.441Z,63.66
2022-11-15T17:14:29.516Z,64.36
2022-11-15T17:16:56.376Z,65.34
2022-11-15T17:19:23.219Z,64.70
2022-11-15T17:21:50.426Z,64.41
2022-11-15T17:24:17.468Z,64.76
2022-11-15T17:26:44.318Z,65.03
2022-11-15T17:29:11.308Z,65.31
2022-11-15T17:31:39.056Z,65.42
2022-11-15T17:34:06.974Z,65.75
2022-11-15T17:36:35.558Z,66.28
2022-11-15T17:39:03.807Z,66.63
2022-11-15T17:41:30.924Z,66.70
2022-11-15T17:44:00.055Z,66.25
2022-11-15T17:46:28.421Z,66.66
2022-11-15T17:48:56.699Z,66.59
2022-11-15T17:51:24.252Z,66.48
2022-11-15T17:53:51.760Z,66.81
2022-11-15T17:56:23.516Z,66.98
2022-11-15T17:58:52.909Z,66.88
2022-11-15T18:01:27.982Z,66.86
2022-11-15T18:03:56.011Z,66.59
2022-11-15T18:06:24.512Z,66.74
2022-11-15T18:08:52.909Z,67.09
2022-11-15T18:11:25.274Z,67.08
2022-11-15T18:14:00.943Z,67.23
2022-11-15T18:16:31.015Z,66.93
2022-11-15T18:18:59.063Z,67.44
2022-11-15T18:21:30.969Z,67.98
2022-11-15T18:24:00.233Z,67.75
2022-11-15T18:26:29.487Z,67.18
2022-11-15T18:29:05.514Z,68.00
2022-11-15T18:31:32.545Z,68.49
2022-11-15T18:34:00.718Z,68.42
2022-11-15T18:36:29.967Z,67.95
2022-11-15T18:38:59.391Z,67.84
2022-11-15T18:41:30.844Z,68.77
2022-11-15T18:43:59.625Z,68.28
2022-11-15T18:46:29.068Z,68.33
2022-11-15T18:48:56.581Z,67.90
2022-11-15T18:51:25.707Z,67.62
2022-11-15T18:53:54.475Z,68.02
2022-11-15T18:56:22.763Z,67.89
2022-11-15T18:58:52.473Z,67.65
2022-11-15T19:01:21.607Z,67.21
2022-11-15T19:03:50.913Z,68.63
2022-11-15T19:06:20.220Z,68.14
2022-11-15T19:08:49.281Z,69.76
2022-11-15T19:11:17.420Z,69.97
2022-11-15T19:13:46.311Z,70.01
2022-11-15T19:16:16.064Z,70.13
2022-11-15T19:18:43.232Z,69.65
2022-11-15T19:21:15.825Z,69.80
2022-11-15T19:23:43.507Z,69.67
2022-11-15T19:26:15.887Z,68.86
2022-11-15T19:28:44.150Z,69.44
2022-11-15T19:31:16.305Z,69.83
2022-11-15T19:33:44.920Z,69.28
2022-11-15T19:36:15.839Z,70.06
2022-11-15T19:38:43.306Z,71.02
2022-11-15T19:41:12.582Z,69.96
2022-11-15T19:43:39.841Z,71.36
2022-11-15T19:46:08.199Z,70.84
2022-11-15T19:48:35.212Z,70.55
2022-11-15T19:51:11.501Z,70.08
2022-11-15T19:53:39.209Z,70.05
2022-11-15T19:56:09.031Z,69.98
2022-11-15T19:58:36.167Z,69.22
2022-11-15T20:01:09.179Z,69.75
2022-11-15T20:03:36.803Z,69.44
2022-11-15T20:06:05.683Z,68.98
2022-11-15T20:08:33.419Z,69.46
2022-11-15T20:11:01.210Z,69.59
2022-11-15T20:13:28.658Z,70.59
2022-11-15T20:15:56.721Z,69.59
2022-11-15T20:18:25.315Z,69.49
2022-11-15T20:20:52.548Z,70.56
2022-11-15T20:23:19.439Z,70.59
2022-11-15T20:25:47.587Z,69.98
2022-11-15T20:28:20.375Z,69.33
2022-11-15T20:30:48.109Z,70.73
2022-11-15T20:33:15.147Z,71.37
2022-11-15T20:35:42.073Z,70.33
2022-11-15T20:38:08.898Z,70.72
2022-11-15T20:40:36.400Z,69.35
2022-11-15T20:43:03.268Z,69.46
2022-11-15T20:45:30.675Z,69.85
2022-11-15T20:47:58.622Z,69.63
2022-11-15T20:50:42.167Z,70.35
2022-11-15T20:53:10.509Z,71.12
2022-11-15T20:55:44.723Z,71.20
2022-11-15T20:58:11.771Z,70.95
2022-11-15T21:00:38.965Z,70.27
2022-11-15T21:03:08.848Z,69.95
2022-11-15T21:05:39.407Z,69.35
2022-11-15T21:08:06.951Z,70.42
2022-11-15T21:10:52.457Z,71.14
2022-11-15T21:13:19.706Z,70.66
2022-11-15T21:15:47.245Z,71.73
2022-11-15T21:18:14.563Z,71.58
2022-11-15T21:20:41.845Z,72.30
2022-11-15T21:23:08.805Z,71.82
2022-11-15T21:25:35.883Z,71.40
2022-11-15T21:28:03.083Z,72.18
2022-11-15T21:30:31.287Z,70.95
2022-11-15T21:32:58.193Z,71.56
2022-11-15T21:35:25.275Z,70.99
2022-11-15T21:37:56.815Z,71.95
2022-11-15T21:40:25.073Z,71.75
2022-11-15T21:42:51.857Z,71.43
2022-11-15T21:45:18.669Z,71.57
2022-11-15T21:47:46.554Z,71.26
2022-11-15T21:50:14.370Z,70.79
2022-11-15T21:52:41.428Z,70.06
2022-11-15T21:55:09.255Z,70.43
2022-11-15T21:57:36.102Z,70.73
2022-11-15T22:00:22.522Z,70.65
2022-11-15T22:02:49.348Z,70.11
2022-11-15T22:05:16.322Z,69.92
2022-11-15T22:07:43.353Z,70.19
2022-11-15T22:10:10.500Z,71.43
2022-11-15T22:12:37.484Z,70.80
2022-11-15T22:15:04.534Z,71.61
2022-11-15T22:17:49.922Z,71.39
2022-11-15T22:20:42.954Z,72.41
2022-11-15T22:23:04.762Z,71.09
2022-11-15T22:25:32.604Z,70.96
2022-11-15T22:27:59.498Z,71.68
2022-11-15T22:30:26.446Z,72.72
2022-11-15T22:32:53.233Z,71.17
2022-11-15T22:35:20.200Z,72.54
2022-11-15T22:37:47.071Z,71.09
2022-11-15T22:40:13.881Z,70.52
2022-11-15T22:42:40.889Z,70.70
2022-11-15T22:45:08.041Z,71.05
2022-11-15T22:47:34.901Z,71.08
2022-11-15T22:50:01.775Z,72.35
2022-11-15T22:52:28.598Z,71.13
2022-11-15T22:54:55.611Z,70.69
2022-11-15T22:57:22.516Z,71.75
2022-11-15T22:59:49.330Z,71.17
2022-11-15T23:02:16.215Z,71.19
2022-11-15T23:04:43.121Z,70.64
2022-11-15T23:07:09.950Z,71.84
2022-11-15T23:09:37.182Z,72.68
2022-11-15T23:12:22.899Z,71.87
2022-11-15T23:14:49.856Z,71.89
2022-11-15T23:17:16.665Z,70.94
2022-11-15T23:19:43.567Z,70.70
2022-11-15T23:22:28.847Z,71.67
2022-11-15T23:24:56.373Z,71.46
2022-11-15T23:27:23.863Z,70.08
2022-11-15T23:30:09.423Z,70.24
2022-11-15T23:32:54.944Z,69.80
2022-11-15T23:35:21.915Z,70.16
2022-11-15T23:37:48.732Z,70.47
2022-11-15T23:40:15.854Z,71.04
2022-11-15T23:42:42.740Z,69.89
2022-11-15T23:45:10.075Z,70.22
2022-11-15T23:47:36.960Z,70.41
2022-11-15T23:50:04.224Z,70.48
2022-11-15T23:52:31.109Z,71.01
2022-11-15T23:54:58.014Z,70.13
2022-11-15T23:57:25.009Z,70.78
2022-11-15T23:59:51.955Z,70.17
